createdAt,value
2023-01-08T00:00:52.248Z,81.92
2023-01-08T00:03:18.879Z,82.14
2023-01-08T00:05:45.525Z,82.13
2023-01-08T00:08:12.215Z,82.07
2023-01-08T00:10:39.327Z,82.16
2023-01-08T00:13:06.975Z,82.11
2023-01-08T00:15:34.034Z,82.11
2023-01-08T00:18:00.432Z,82.58
2023-01-08T00:20:27.785Z,82.23
2023-01-08T00:22:54.303Z,82.50
2023-01-08T00:25:20.727Z,82.21
2023-01-08T00:27:47.368Z,82.38
2023-01-08T00:30:13.858Z,82.38
2023-01-08T00:32:40.275Z,82.42
2023-01-08T00:35:06.979Z,82.99
2023-01-08T00:37:33.324Z,82.68
2023-01-08T00:39:59.683Z,82.57
2023-01-08T00:42:26.130Z,82.47
2023-01-08T00:44:52.584Z,82.46
2023-01-08T00:47:18.954Z,82.79
2023-01-08T00:49:45.664Z,83.03
2023-01-08T00:52:12.380Z,83.00
2023-01-08T00:54:38.894Z,82.78
2023-01-08T00:57:05.327Z,82.82
2023-01-08T00:59:31.694Z,82.57
2023-01-08T01:01:58.280Z,82.66
2023-01-08T01:04:26.147Z,82.78
2023-01-08T01:06:52.851Z,82.89
2023-01-08T01:09:19.206Z,83.00
2023-01-08T01:11:45.632Z,82.61
2023-01-08T01:14:11.983Z,82.52
2023-01-08T01:16:39.937Z,83.02
2023-01-08T01:19:06.548Z,83.15
2023-01-08T01:21:33.075Z,82.91
2023-01-08T01:24:03.192Z,82.88
2023-01-08T01:26:30.837Z,82.88
2023-01-08T01:28:58.542Z,82.94
2023-01-08T01:31:27.184Z,82.81
2023-01-08T01:33:53.564Z,82.80
2023-01-08T01:36:23.537Z,82.60
2023-01-08T01:38:52.290Z,82.74
2023-01-08T01:41:33.288Z,82.99
2023-01-08T01:44:20.643Z,83.00
2023-01-08T01:46:48.136Z,82.67
2023-01-08T01:49:20.775Z,82.85
2023-01-08T01:51:52.559Z,83.03
2023-01-08T01:54:19.919Z,83.23
2023-01-08T01:56:46.862Z,83.56
2023-01-08T01:59:13.964Z,83.30
2023-01-08T02:01:42.274Z,83.19
2023-01-08T02:04:11.609Z,83.02
2023-01-08T02:06:53.535Z,83.05
2023-01-08T02:09:42.484Z,83.10
2023-01-08T02:12:22.740Z,83.26
2023-01-08T02:15:02.412Z,83.48
2023-01-08T02:17:39.760Z,83.38
2023-01-08T02:20:13.560Z,83.88
2023-01-08T02:23:06.268Z,83.49
2023-01-08T02:25:52.669Z,83.67
2023-01-08T02:28:19.685Z,83.78
2023-01-08T02:30:47.479Z,83.73
2023-01-08T02:33:13.870Z,84.03
2023-01-08T02:35:44.752Z,83.66
2023-01-08T02:38:14.614Z,83.80
2023-01-08T02:41:06.279Z,83.91
2023-01-08T02:43:42.475Z,83.85
2023-01-08T02:46:13.967Z,84.00
2023-01-08T02:48:48.366Z,84.15
2023-01-08T02:51:40.169Z,84.04
2023-01-08T02:54:11.379Z,84.35
2023-01-08T02:56:43.742Z,84.16
2023-01-08T02:59:12.520Z,84.02
2023-01-08T03:01:40.840Z,84.40
2023-01-08T03:04:13.909Z,84.44
2023-01-08T03:06:40.619Z,84.37
2023-01-08T03:09:07.254Z,84.13
2023-01-08T03:11:44.090Z,84.36
2023-01-08T03:14:18.914Z,84.23
2023-01-08T03:16:57.173Z,84.09
2023-01-08T03:19:28.528Z,84.46
2023-01-08T03:21:56.247Z,84.50
2023-01-08T03:24:27.095Z,84.34
2023-01-08T03:26:57.592Z,84.10
2023-01-08T03:29:25.379Z,83.92
2023-01-08T03:32:00.162Z,83.88
2023-01-08T03:34:31.527Z,83.85
2023-01-08T03:37:02.931Z,83.82
2023-01-08T03:39:36.072Z,83.77
2023-01-08T03:42:07.425Z,83.81
2023-01-08T03:44:33.867Z,83.98
2023-01-08T03:47:00.291Z,83.81
2023-01-08T03:49:28.875Z,83.56
2023-01-08T03:51:55.488Z,83.88
2023-01-08T03:54:29.192Z,83.89
2023-01-08T03:56:55.573Z,83.81
2023-01-08T03:59:21.931Z,83.98
2023-01-08T04:01:48.380Z,83.88
2023-01-08T04:04:15.045Z,83.84
2023-01-08T04:06:41.462Z,83.59
2023-01-08T04:09:08.051Z,84.06
2023-01-08T04:11:34.410Z,83.36
2023-01-08T04:14:00.899Z,83.18
2023-01-08T04:16:27.516Z,83.11
2023-01-08T04:18:54.102Z,83.28
2023-01-08T04:21:20.527Z,83.30
2023-01-08T04:23:47.816Z,83.45
2023-01-08T04:26:14.406Z,83.57
2023-01-08T04:28:41.096Z,83.17
2023-01-08T04:31:08.588Z,83.29
2023-01-08T04:33:35.645Z,83.51
2023-01-08T04:36:02.580Z,83.36
2023-01-08T04:38:29.084Z,83.60
2023-01-08T04:41:02.440Z,83.45
2023-01-08T04:43:29.850Z,83.48
2023-01-08T04:46:04.562Z,83.73
2023-01-08T04:48:31.385Z,83.79
2023-01-08T04:51:00.359Z,83.89
2023-01-08T04:53:27.614Z,83.86
2023-01-08T04:55:54.493Z,84.13
2023-01-08T04:58:21.003Z,83.73
2023-01-08T05:00:47.417Z,83.82
2023-01-08T05:03:14.834Z,83.88
2023-01-08T05:05:41.496Z,83.88
2023-01-08T05:08:08.146Z,83.98
2023-01-08T05:10:34.552Z,84.10
2023-01-08T05:13:01.372Z,83.82
2023-01-08T05:15:28.655Z,84.24
2023-01-08T05:18:00.114Z,84.04
2023-01-08T05:20:26.938Z,83.83
2023-01-08T05:22:53.379Z,83.67
2023-01-08T05:25:20.124Z,83.99
2023-01-08T05:27:47.175Z,83.98
2023-01-08T05:30:13.883Z,84.01
2023-01-08T05:32:40.246Z,84.10
2023-01-08T05:35:07.868Z,84.02
2023-01-08T05:37:35.397Z,84.23
2023-01-08T05:40:02.016Z,84.02
2023-01-08T05:42:28.392Z,84.26
2023-01-08T05:44:54.761Z,84.08
2023-01-08T05:47:21.191Z,84.16
2023-01-08T05:49:47.636Z,83.93
2023-01-08T05:52:14.137Z,84.00
2023-01-08T05:54:40.500Z,83.88
2023-01-08T05:57:06.847Z,84.33
2023-01-08T05:59:33.431Z,84.17
2023-01-08T06:01:59.827Z,84.24
2023-01-08T06:04:26.377Z,83.84
2023-01-08T06:06:53.804Z,84.06
2023-01-08T06:09:20.372Z,83.69
2023-01-08T06:11:47.275Z,83.63
2023-01-08T06:14:15.923Z,83.75
2023-01-08T06:16:46.040Z,83.87
2023-01-08T06:19:12.653Z,83.38
2023-01-08T06:21:39.050Z,83.42
2023-01-08T06:24:05.791Z,83.44
2023-01-08T06:26:32.162Z,83.22
2023-01-08T06:28:58.557Z,83.21
2023-01-08T06:31:25.051Z,83.10
2023-01-08T06:33:51.548Z,83.24
2023-01-08T06:36:17.934Z,83.08
2023-01-08T06:38:44.295Z,82.81
2023-01-08T06:41:12.355Z,82.81
2023-01-08T06:43:39.232Z,82.94
2023-01-08T06:46:06.830Z,82.55
2023-01-08T06:48:33.248Z,82.85
2023-01-08T06:51:00.842Z,82.98
2023-01-08T06:53:27.239Z,82.69
2023-01-08T06:55:56.956Z,82.64
2023-01-08T06:58:24.523Z,82.53
2023-01-08T07:00:51.132Z,82.52
2023-01-08T07:03:17.694Z,82.72
2023-01-08T07:05:44.191Z,82.52
2023-01-08T07:08:15.431Z,82.47
2023-01-08T07:10:42.873Z,82.42
2023-01-08T07:13:09.833Z,82.74
2023-01-08T07:15:37.236Z,82.35
2023-01-08T07:18:07.462Z,81.95
2023-01-08T07:20:34.424Z,81.82
2023-01-08T07:23:05.259Z,82.28
2023-01-08T07:25:32.421Z,82.17
2023-01-08T07:28:00.609Z,81.93
2023-01-08T07:30:30.287Z,82.19
2023-01-08T07:33:03.517Z,82.30
2023-01-08T07:35:30.137Z,82.00
2023-01-08T07:37:56.721Z,82.32
2023-01-08T07:40:23.861Z,82.25
2023-01-08T07:43:01.148Z,82.27
2023-01-08T07:45:29.076Z,82.25
2023-01-08T07:47:58.845Z,82.10
2023-01-08T07:50:26.127Z,81.93
2023-01-08T07:52:52.616Z,81.43
2023-01-08T07:55:18.975Z,81.68
2023-01-08T07:57:45.515Z,81.70
2023-01-08T08:00:12.246Z,81.47
2023-01-08T08:02:38.714Z,81.71
2023-01-08T08:05:05.370Z,81.64
2023-01-08T08:07:31.871Z,81.93
2023-01-08T08:09:58.508Z,81.45
2023-01-08T08:12:25.187Z,81.65
2023-01-08T08:14:51.907Z,81.48
2023-01-08T08:17:18.369Z,81.49
2023-01-08T08:19:45.516Z,81.37
2023-01-08T08:22:13.351Z,81.37
2023-01-08T08:24:40.003Z,81.62
2023-01-08T08:27:06.563Z,81.15
2023-01-08T08:29:32.936Z,81.34
2023-01-08T08:31:59.311Z,81.25
2023-01-08T08:34:25.788Z,81.29
2023-01-08T08:36:52.352Z,81.94
2023-01-08T08:39:18.712Z,81.19
2023-01-08T08:41:45.090Z,80.21
2023-01-08T08:44:11.603Z,80.76
2023-01-08T08:46:38.137Z,80.72
2023-01-08T08:49:04.487Z,80.47
2023-01-08T08:51:30.879Z,80.79
2023-01-08T08:53:57.301Z,80.71
2023-01-08T08:56:23.746Z,80.61
2023-01-08T08:58:51.850Z,80.49
2023-01-08T09:01:18.321Z,80.76
2023-01-08T09:03:44.760Z,80.05
2023-01-08T09:06:14.986Z,80.15
2023-01-08T09:08:41.405Z,80.37
2023-01-08T09:11:07.872Z,80.50
2023-01-08T09:13:34.243Z,80.21
2023-01-08T09:16:00.997Z,79.69
2023-01-08T09:18:27.380Z,80.27
2023-01-08T09:20:53.998Z,80.20
2023-01-08T09:23:20.457Z,80.00
2023-01-08T09:25:47.153Z,79.89
2023-01-08T09:28:13.603Z,79.98
2023-01-08T09:30:40.406Z,79.53
2023-01-08T09:33:06.974Z,80.24
2023-01-08T09:35:33.758Z,79.81
2023-01-08T09:38:00.547Z,79.31
2023-01-08T09:40:35.275Z,79.35
2023-01-08T09:43:03.579Z,79.71
2023-01-08T09:45:36.191Z,79.16
2023-01-08T09:48:07.747Z,79.27
2023-01-08T09:50:34.725Z,79.31
2023-01-08T09:53:02.017Z,78.86
2023-01-08T09:55:32.986Z,79.29
2023-01-08T09:58:02.898Z,79.38
2023-01-08T10:00:34.752Z,79.06
2023-01-08T10:03:01.311Z,78.89
2023-01-08T10:05:28.595Z,79.17
2023-01-08T10:07:55.317Z,79.01
2023-01-08T10:10:25.564Z,79.14
2023-01-08T10:12:53.313Z,78.50
2023-01-08T10:15:21.678Z,78.84
2023-01-08T10:18:11.152Z,78.53
2023-01-08T10:20:39.275Z,78.55
2023-01-08T10:23:23.847Z,78.07
2023-01-08T10:26:01.392Z,78.17
2023-01-08T10:28:35.127Z,77.91
2023-01-08T10:31:07.899Z,77.79
2023-01-08T10:33:47.445Z,77.63
2023-01-08T10:36:17.149Z,77.95
2023-01-08T10:38:59.080Z,78.16
2023-01-08T10:41:26.308Z,77.81
2023-01-08T10:43:57.060Z,77.77
2023-01-08T10:46:24.857Z,77.88
2023-01-08T10:48:55.617Z,77.63
2023-01-08T10:51:24.759Z,78.44
2023-01-08T10:53:52.427Z,78.09
2023-01-08T10:56:24.319Z,77.87
2023-01-08T10:58:51.276Z,77.91
2023-01-08T11:01:25.374Z,77.64
2023-01-08T11:04:01.265Z,78.34
2023-01-08T11:06:32.084Z,77.82
2023-01-08T11:09:04.666Z,77.80
2023-01-08T11:11:35.926Z,78.13
2023-01-08T11:14:06.403Z,77.56
2023-01-08T11:16:36.631Z,77.48
2023-01-08T11:19:04.231Z,77.29
2023-01-08T11:21:32.438Z,77.31
2023-01-08T11:24:12.276Z,77.32
2023-01-08T11:26:43.388Z,77.07
2023-01-08T11:29:16.870Z,77.18
2023-01-08T11:32:11.150Z,77.47
2023-01-08T11:34:43.589Z,77.45
2023-01-08T11:37:20.875Z,77.30
2023-01-08T11:39:47.964Z,77.54
2023-01-08T11:42:23.806Z,77.51
2023-01-08T11:45:12.029Z,77.84
2023-01-08T11:47:44.718Z,77.50
2023-01-08T11:50:21.796Z,77.78
2023-01-08T11:53:07.119Z,77.39
2023-01-08T11:55:57.233Z,77.45
2023-01-08T11:58:37.537Z,77.54
2023-01-08T12:01:25.191Z,77.55
2023-01-08T12:04:23.743Z,77.38
2023-01-08T12:07:12.128Z,76.60
2023-01-08T12:09:57.018Z,76.29
2023-01-08T12:12:41.096Z,75.85
2023-01-08T12:15:29.329Z,76.28
2023-01-08T12:18:29.948Z,76.26
2023-01-08T12:21:15.529Z,75.83
2023-01-08T12:23:50.650Z,76.04
2023-01-08T12:26:24.182Z,75.82
2023-01-08T12:29:00.064Z,75.77
2023-01-08T12:31:38.475Z,75.86
2023-01-08T12:34:12.222Z,75.88
2023-01-08T12:36:46.765Z,75.21
2023-01-08T12:39:20.365Z,75.09
2023-01-08T12:41:49.181Z,75.26
2023-01-08T12:44:28.536Z,74.91
2023-01-08T12:46:58.801Z,74.19
2023-01-08T12:49:42.977Z,74.76
2023-01-08T12:52:18.197Z,74.20
2023-01-08T12:54:58.737Z,74.00
2023-01-08T12:57:49.010Z,74.26
2023-01-08T13:00:26.777Z,73.88
2023-01-08T13:02:59.636Z,74.23
2023-01-08T13:05:31.401Z,73.96
2023-01-08T13:08:02.007Z,73.64
2023-01-08T13:10:50.593Z,74.10
2023-01-08T13:13:29.724Z,73.97
2023-01-08T13:16:28.471Z,74.00
2023-01-08T13:19:02.983Z,74.35
2023-01-08T13:21:52.988Z,73.98
2023-01-08T13:24:36.334Z,74.11
2023-01-08T13:27:14.863Z,74.27
2023-01-08T13:29:44.278Z,74.23
2023-01-08T13:32:49.314Z,74.12
2023-01-08T13:35:15.614Z,74.05
2023-01-08T13:37:48.568Z,74.80
2023-01-08T13:40:37.613Z,74.67
2023-01-08T13:43:11.447Z,74.40
2023-01-08T13:45:37.939Z,74.40
2023-01-08T13:48:04.355Z,74.64
2023-01-08T13:50:31.061Z,74.33
2023-01-08T13:52:59.679Z,74.83
2023-01-08T13:55:30.853Z,74.36
2023-01-08T13:58:07.416Z,75.17
2023-01-08T14:00:42.934Z,74.97
2023-01-08T14:03:37.451Z,75.21
2023-01-08T14:06:20.315Z,76.12
2023-01-08T14:08:52.774Z,76.54
2023-01-08T14:11:22.637Z,76.76
2023-01-08T14:13:49.447Z,77.15
2023-01-08T14:16:17.023Z,77.51
2023-01-08T14:18:45.637Z,77.67
2023-01-08T14:21:13.396Z,77.51
2023-01-08T14:23:47.061Z,77.76
2023-01-08T14:26:29.517Z,78.79
2023-01-08T14:28:56.357Z,78.53
2023-01-08T14:31:25.366Z,78.46
2023-01-08T14:33:53.347Z,79.06
2023-01-08T14:36:21.065Z,79.58
2023-01-08T14:38:50.969Z,79.63
2023-01-08T14:42:05.756Z,79.58
2023-01-08T14:44:38.032Z,80.43
2023-01-08T14:47:18.826Z,80.39
2023-01-08T14:49:53.820Z,80.93
2023-01-08T14:52:21.350Z,81.20
2023-01-08T14:54:52.736Z,81.10
2023-01-08T14:57:19.993Z,81.04
2023-01-08T14:59:54.843Z,81.29
2023-01-08T15:02:34.280Z,81.33
2023-01-08T15:05:27.481Z,80.96
2023-01-08T15:08:21.153Z,81.27
2023-01-08T15:10:58.175Z,81.36
2023-01-08T15:13:29.822Z,81.79
2023-01-08T15:16:12.395Z,81.83
2023-01-08T15:18:47.541Z,81.62
2023-01-08T15:21:19.179Z,81.35
2023-01-08T15:23:51.489Z,81.42
2023-01-08T15:26:18.450Z,80.75
2023-01-08T15:28:57.309Z,81.14
2023-01-08T15:31:28.464Z,80.95
2023-01-08T15:33:56.211Z,80.38
2023-01-08T15:36:22.672Z,80.00
2023-01-08T15:38:49.800Z,79.99
2023-01-08T15:41:41.931Z,79.56
2023-01-08T15:44:10.337Z,79.44
2023-01-08T15:46:36.785Z,79.63
2023-01-08T15:49:03.771Z,79.50
2023-01-08T15:51:33.446Z,80.02
2023-01-08T15:54:00.209Z,80.02
2023-01-08T15:56:26.803Z,79.94
2023-01-08T15:58:53.242Z,79.70
2023-01-08T16:01:20.185Z,79.62
2023-01-08T16:03:46.817Z,79.54
2023-01-08T16:06:13.177Z,79.55
2023-01-08T16:08:45.679Z,79.80
2023-01-08T16:11:16.824Z,79.24
2023-01-08T16:13:43.193Z,79.00
2023-01-08T16:16:10.993Z,79.16
2023-01-08T16:18:38.152Z,79.34
2023-01-08T16:21:07.308Z,79.26
2023-01-08T16:23:35.639Z,79.21
2023-01-08T16:26:07.011Z,79.11
2023-01-08T16:28:33.695Z,79.13
2023-01-08T16:31:00.172Z,79.19
2023-01-08T16:33:26.748Z,78.86
2023-01-08T16:36:02.114Z,79.26
2023-01-08T16:38:29.590Z,79.20
2023-01-08T16:40:56.932Z,79.11
2023-01-08T16:43:24.711Z,78.97
2023-01-08T16:45:51.486Z,79.57
2023-01-08T16:48:18.436Z,79.01
2023-01-08T16:50:44.904Z,78.94
2023-01-08T16:53:12.115Z,79.01
2023-01-08T16:55:39.565Z,79.59
2023-01-08T16:58:07.262Z,79.59
2023-01-08T17:00:39.020Z,79.23
2023-01-08T17:03:09.562Z,79.28
2023-01-08T17:05:36.520Z,78.61
2023-01-08T17:08:02.905Z,78.93
2023-01-08T17:10:29.281Z,79.32
2023-01-08T17:12:55.645Z,79.33
2023-01-08T17:15:22.058Z,79.07
2023-01-08T17:17:48.491Z,79.70
2023-01-08T17:20:15.023Z,79.08
2023-01-08T17:22:41.414Z,78.82
2023-01-08T17:25:08.359Z,78.78
2023-01-08T17:27:35.600Z,78.85
2023-01-08T17:30:02.254Z,79.19
2023-01-08T17:32:30.197Z,78.81
2023-01-08T17:34:56.637Z,78.95
2023-01-08T17:37:23.068Z,79.43
2023-01-08T17:39:49.437Z,79.22
2023-01-08T17:42:24.948Z,79.02
2023-01-08T17:44:52.061Z,78.96
2023-01-08T17:47:19.824Z,78.88
2023-01-08T17:49:50.263Z,79.29
2023-01-08T17:52:16.640Z,79.62
2023-01-08T17:54:42.990Z,79.99
2023-01-08T17:57:09.585Z,79.47
2023-01-08T17:59:35.999Z,80.08
2023-01-08T18:02:02.518Z,79.96
2023-01-08T18:04:28.986Z,80.12
2023-01-08T18:06:55.568Z,80.39
2023-01-08T18:09:22.077Z,80.61
2023-01-08T18:11:48.588Z,80.31
2023-01-08T18:14:14.934Z,80.53
2023-01-08T18:16:45.457Z,80.89
2023-01-08T18:19:12.548Z,80.93
2023-01-08T18:21:39.052Z,81.20
2023-01-08T18:24:05.769Z,81.46
2023-01-08T18:26:32.157Z,81.24
2023-01-08T18:28:58.533Z,81.41
2023-01-08T18:31:25.031Z,81.60
2023-01-08T18:33:51.929Z,82.13
2023-01-08T18:36:19.520Z,82.35
2023-01-08T18:38:46.247Z,82.21
2023-01-08T18:41:36.179Z,82.33
2023-01-08T18:44:04.696Z,82.71
2023-01-08T18:46:31.218Z,82.54
2023-01-08T18:48:57.671Z,82.61
2023-01-08T18:51:24.034Z,82.60
2023-01-08T18:53:50.859Z,82.46
2023-01-08T18:56:36.237Z,82.82
2023-01-08T18:59:04.465Z,83.52
2023-01-08T19:01:31.231Z,83.46
2023-01-08T19:03:57.727Z,83.50
2023-01-08T19:06:24.921Z,83.66
2023-01-08T19:08:52.096Z,83.83
2023-01-08T19:11:18.593Z,83.92
2023-01-08T19:13:45.017Z,83.95
2023-01-08T19:16:13.779Z,83.88
2023-01-08T19:18:40.264Z,83.80
2023-01-08T19:21:08.025Z,84.00
2023-01-08T19:23:34.783Z,84.05
2023-01-08T19:26:06.579Z,84.03
2023-01-08T19:28:33.143Z,84.10
2023-01-08T19:31:00.307Z,83.83
2023-01-08T19:33:26.845Z,83.64
2023-01-08T19:35:53.224Z,83.72
2023-01-08T19:38:20.532Z,83.91
2023-01-08T19:40:46.920Z,83.88
2023-01-08T19:43:32.065Z,83.55
2023-01-08T19:46:05.992Z,83.62
2023-01-08T19:48:32.960Z,83.46
2023-01-08T19:50:59.577Z,83.29
2023-01-08T19:53:26.109Z,83.20
2023-01-08T19:55:52.452Z,83.31
2023-01-08T19:58:19.491Z,83.40
2023-01-08T20:00:46.411Z,83.77
2023-01-08T20:03:12.928Z,83.50
2023-01-08T20:05:42.399Z,83.37
2023-01-08T20:08:09.020Z,83.36
2023-01-08T20:10:35.371Z,83.29
2023-01-08T20:13:01.710Z,83.85
2023-01-08T20:15:28.993Z,83.73
2023-01-08T20:17:55.406Z,83.31
2023-01-08T20:20:21.824Z,83.32
2023-01-08T20:22:48.425Z,83.30
2023-01-08T20:25:14.964Z,83.67
2023-01-08T20:27:41.386Z,83.64
2023-01-08T20:30:10.300Z,83.51
2023-01-08T20:32:37.018Z,83.74
2023-01-08T20:35:04.427Z,83.85
2023-01-08T20:37:30.863Z,83.69
2023-01-08T20:39:57.248Z,83.89
2023-01-08T20:42:33.529Z,83.81
2023-01-08T20:45:00.359Z,83.70
2023-01-08T20:47:26.785Z,84.26
2023-01-08T20:49:53.265Z,83.67
2023-01-08T20:52:19.687Z,84.11
2023-01-08T20:54:46.160Z,83.70
2023-01-08T20:57:12.607Z,83.74
2023-01-08T20:59:38.964Z,84.05
2023-01-08T21:02:06.118Z,83.89
2023-01-08T21:04:32.746Z,83.73
2023-01-08T21:06:59.214Z,83.91
2023-01-08T21:09:25.691Z,84.09
2023-01-08T21:11:52.143Z,83.91
2023-01-08T21:14:18.668Z,83.92
2023-01-08T21:16:45.288Z,83.95
2023-01-08T21:19:14.747Z,83.98
2023-01-08T21:21:41.235Z,83.74
2023-01-08T21:24:09.272Z,83.48
2023-01-08T21:26:37.097Z,83.50
2023-01-08T21:29:05.919Z,83.52
2023-01-08T21:31:32.841Z,83.58
2023-01-08T21:34:00.493Z,84.01
2023-01-08T21:36:30.101Z,83.70
2023-01-08T21:38:57.068Z,84.01
2023-01-08T21:41:44.060Z,83.95
2023-01-08T21:44:31.513Z,84.17
2023-01-08T21:46:59.474Z,83.93
2023-01-08T21:49:26.935Z,84.18
2023-01-08T21:52:12.443Z,84.18
2023-01-08T21:54:39.527Z,84.23
2023-01-08T21:57:07.554Z,84.37
2023-01-08T21:59:34.519Z,83.89
2023-01-08T22:02:01.493Z,84.17
2023-01-08T22:04:28.290Z,84.15
2023-01-08T22:06:54.793Z,84.31
2023-01-08T22:09:21.280Z,83.94
2023-01-08T22:11:47.716Z,84.31
2023-01-08T22:14:14.255Z,83.31
2023-01-08T22:16:40.818Z,83.97
2023-01-08T22:19:07.354Z,83.91
2023-01-08T22:21:33.698Z,83.94
2023-01-08T22:24:00.254Z,84.40
2023-01-08T22:26:26.777Z,83.96
2023-01-08T22:28:53.164Z,84.23
2023-01-08T22:31:19.605Z,84.07
2023-01-08T22:33:46.155Z,84.30
2023-01-08T22:36:13.839Z,84.37
2023-01-08T22:38:40.199Z,84.23
2023-01-08T22:41:15.540Z,84.48
2023-01-08T22:43:42.060Z,84.39
2023-01-08T22:46:13.179Z,84.21
2023-01-08T22:48:39.739Z,84.51
2023-01-08T22:51:06.331Z,84.48
2023-01-08T22:53:32.816Z,84.29
2023-01-08T22:55:59.196Z,84.46
2023-01-08T22:58:27.673Z,84.46
2023-01-08T23:00:54.060Z,84.42
2023-01-08T23:03:20.437Z,84.53
2023-01-08T23:05:46.820Z,84.22
2023-01-08T23:08:13.257Z,83.86
2023-01-08T23:10:39.802Z,83.96
2023-01-08T23:13:06.158Z,83.79
2023-01-08T23:15:32.713Z,83.84
2023-01-08T23:17:59.102Z,83.78
2023-01-08T23:20:25.714Z,83.51
2023-01-08T23:22:52.156Z,83.71
2023-01-08T23:25:18.569Z,83.63
2023-01-08T23:27:45.521Z,83.59
2023-01-08T23:30:12.316Z,83.69
2023-01-08T23:32:39.619Z,83.64
2023-01-08T23:35:06.608Z,83.58
2023-01-08T23:37:34.049Z,83.49
2023-01-08T23:40:00.560Z,83.66
2023-01-08T23:42:28.848Z,83.16
2023-01-08T23:44:55.288Z,83.28
2023-01-08T23:47:21.657Z,83.35
2023-01-08T23:49:48.048Z,83.22
2023-01-08T23:52:14.410Z,82.92
2023-01-08T23:54:40.758Z,83.52
2023-01-08T23:57:07.087Z,83.22
2023-01-08T23:59:33.686Z,82.98
